sensor_id;sensor_type;location;lat;lon;timestamp;P1;durP1;ratioP1;P2;durP2;ratioP2
73841;SDS011;62184;52.006;5.924;2023-12-20T00:00:18;7.30;;;6.65;;
73841;SDS011;62184;52.006;5.924;2023-12-20T00:02:45;6.88;;;6.38;;
73841;SDS011;62184;52.006;5.924;2023-12-20T00:05:11;6.70;;;6.20;;
73841;SDS011;62184;52.006;5.924;2023-12-20T00:07:38;6.93;;;6.43;;
73841;SDS011;62184;52.006;5.924;2023-12-20T00:10:07;6.90;;;6.40;;
73841;SDS011;62184;52.006;5.924;2023-12-20T00:12:34;7.10;;;6.50;;
73841;SDS011;62184;52.006;5.924;2023-12-20T00:15:01;7.10;;;6.60;;
73841;SDS011;62184;52.006;5.924;2023-12-20T00:17:27;7.00;;;6.50;;
73841;SDS011;62184;52.006;5.924;2023-12-20T00:19:53;7.10;;;6.60;;
73841;SDS011;62184;52.006;5.924;2023-12-20T00:22:20;6.93;;;6.43;;
73841;SDS011;62184;52.006;5.924;2023-12-20T00:24:46;6.90;;;6.40;;
73841;SDS011;62184;52.006;5.924;2023-12-20T00:27:15;6.95;;;6.45;;
73841;SDS011;62184;52.006;5.924;2023-12-20T00:29:41;7.10;;;6.60;;
73841;SDS011;62184;52.006;5.924;2023-12-20T00:32:08;7.03;;;6.53;;
73841;SDS011;62184;52.006;5.924;2023-12-20T00:34:34;7.05;;;6.55;;
73841;SDS011;62184;52.006;5.924;2023-12-20T00:37:01;7.20;;;6.70;;
73841;SDS011;62184;52.006;5.924;2023-12-20T00:39:27;7.00;;;6.50;;
73841;SDS011;62184;52.006;5.924;2023-12-20T00:41:53;7.95;;;7.45;;
73841;SDS011;62184;52.006;5.924;2023-12-20T00:44:22;9.10;;;8.50;;
73841;SDS011;62184;52.006;5.924;2023-12-20T00:46:49;8.77;;;8.17;;
73841;SDS011;62184;52.006;5.924;2023-12-20T00:49:15;8.87;;;8.27;;
73841;SDS011;62184;52.006;5.924;2023-12-20T00:51:41;8.90;;;8.30;;
73841;SDS011;62184;52.006;5.924;2023-12-20T00:54:08;9.27;;;8.67;;
73841;SDS011;62184;52.006;5.924;2023-12-20T00:56:34;9.02;;;8.43;;
73841;SDS011;62184;52.006;5.924;2023-12-20T00:59:01;9.50;;;8.90;;
73841;SDS011;62184;52.006;5.924;2023-12-20T01:01:30;9.40;;;8.80;;
73841;SDS011;62184;52.006;5.924;2023-12-20T01:03:56;8.90;;;8.30;;
73841;SDS011;62184;52.006;5.924;2023-12-20T01:06:23;8.77;;;8.17;;
73841;SDS011;62184;52.006;5.924;2023-12-20T01:08:49;8.70;;;8.10;;
73841;SDS011;62184;52.006;5.924;2023-12-20T01:11:15;8.90;;;8.30;;
73841;SDS011;62184;52.006;5.924;2023-12-20T01:13:42;8.30;;;7.80;;
73841;SDS011;62184;52.006;5.924;2023-12-20T01:16:09;8.70;;;8.10;;
73841;SDS011;62184;52.006;5.924;2023-12-20T01:18:39;8.60;;;8.00;;
73841;SDS011;62184;52.006;5.924;2023-12-20T01:21:06;8.90;;;8.30;;
73841;SDS011;62184;52.006;5.924;2023-12-20T01:23:32;8.70;;;8.10;;
73841;SDS011;62184;52.006;5.924;2023-12-20T01:25:58;9.55;;;8.95;;
73841;SDS011;62184;52.006;5.924;2023-12-20T01:28:25;8.60;;;8.00;;
73841;SDS011;62184;52.006;5.924;2023-12-20T01:30:52;8.70;;;8.10;;
73841;SDS011;62184;52.006;5.924;2023-12-20T01:33:18;8.65;;;8.05;;
73841;SDS011;62184;52.006;5.924;2023-12-20T01:35:47;8.70;;;8.10;;
73841;SDS011;62184;52.006;5.924;2023-12-20T01:38:14;8.75;;;8.15;;
73841;SDS011;62184;52.006;5.924;2023-12-20T01:40:40;8.80;;;8.20;;
73841;SDS011;62184;52.006;5.924;2023-12-20T01:43:08;8.65;;;8.05;;
73841;SDS011;62184;52.006;5.924;2023-12-20T01:45:35;8.90;;;8.20;;
73841;SDS011;62184;52.006;5.924;2023-12-20T01:48:01;8.63;;;8.02;;
73841;SDS011;62184;52.006;5.924;2023-12-20T01:50:31;8.80;;;8.20;;
73841;SDS011;62184;52.006;5.924;2023-12-20T01:53:04;8.75;;;8.15;;
73841;SDS011;62184;52.006;5.924;2023-12-20T01:55:34;8.57;;;7.97;;
73841;SDS011;62184;52.006;5.924;2023-12-20T01:58:05;8.75;;;8.15;;
73841;SDS011;62184;52.006;5.924;2023-12-20T02:00:34;8.80;;;8.20;;
73841;SDS011;62184;52.006;5.924;2023-12-20T02:03:02;8.90;;;8.30;;
73841;SDS011;62184;52.006;5.924;2023-12-20T02:05:30;8.98;;;8.38;;
73841;SDS011;62184;52.006;5.924;2023-12-20T02:07:58;8.70;;;8.10;;
73841;SDS011;62184;52.006;5.924;2023-12-20T02:10:27;9.00;;;8.40;;
73841;SDS011;62184;52.006;5.924;2023-12-20T02:12:54;9.20;;;8.60;;
73841;SDS011;62184;52.006;5.924;2023-12-20T02:15:21;9.02;;;8.43;;
73841;SDS011;62184;52.006;5.924;2023-12-20T02:17:47;9.32;;;8.73;;
73841;SDS011;62184;52.006;5.924;2023-12-20T02:20:15;9.50;;;8.90;;
73841;SDS011;62184;52.006;5.924;2023-12-20T02:22:44;9.80;;;9.20;;
73841;SDS011;62184;52.006;5.924;2023-12-20T02:25:11;9.60;;;9.00;;
73841;SDS011;62184;52.006;5.924;2023-12-20T02:27:37;9.80;;;9.20;;
73841;SDS011;62184;52.006;5.924;2023-12-20T02:30:06;9.82;;;9.23;;
73841;SDS011;62184;52.006;5.924;2023-12-20T02:32:34;9.70;;;9.10;;
73841;SDS011;62184;52.006;5.924;2023-12-20T02:35:01;9.90;;;9.30;;
73841;SDS011;62184;52.006;5.924;2023-12-20T02:37:27;10.20;;;9.60;;
73841;SDS011;62184;52.006;5.924;2023-12-20T02:39:56;10.10;;;9.50;;
73841;SDS011;62184;52.006;5.924;2023-12-20T02:42:22;10.20;;;9.60;;
73841;SDS011;62184;52.006;5.924;2023-12-20T02:44:49;10.63;;;10.02;;
73841;SDS011;62184;52.006;5.924;2023-12-20T02:47:15;10.60;;;10.00;;
73841;SDS011;62184;52.006;5.924;2023-12-20T02:49:41;11.57;;;10.67;;
73841;SDS011;62184;52.006;5.924;2023-12-20T02:52:08;11.32;;;10.63;;
73841;SDS011;62184;52.006;5.924;2023-12-20T02:54:35;11.00;;;10.30;;
73841;SDS011;62184;52.006;5.924;2023-12-20T02:57:04;11.32;;;10.63;;
73841;SDS011;62184;52.006;5.924;2023-12-20T02:59:30;11.82;;;11.13;;
73841;SDS011;62184;52.006;5.924;2023-12-20T03:01:56;11.60;;;10.90;;
73841;SDS011;62184;52.006;5.924;2023-12-20T03:04:23;11.77;;;11.07;;
73841;SDS011;62184;52.006;5.924;2023-12-20T03:06:49;12.18;;;11.48;;
73841;SDS011;62184;52.006;5.924;2023-12-20T03:09:16;12.48;;;11.77;;
73841;SDS011;62184;52.006;5.924;2023-12-20T03:11:42;12.73;;;12.02;;
73841;SDS011;62184;52.006;5.924;2023-12-20T03:14:11;12.68;;;11.98;;
73841;SDS011;62184;52.006;5.924;2023-12-20T03:16:37;13.23;;;12.45;;
73841;SDS011;62184;52.006;5.924;2023-12-20T03:19:04;13.10;;;12.30;;
73841;SDS011;62184;52.006;5.924;2023-12-20T03:21:30;13.10;;;12.40;;
73841;SDS011;62184;52.006;5.924;2023-12-20T03:23:56;12.82;;;12.13;;
73841;SDS011;62184;52.006;5.924;2023-12-20T03:26:23;13.60;;;12.80;;
73841;SDS011;62184;52.006;5.924;2023-12-20T03:28:49;13.20;;;12.50;;
73841;SDS011;62184;52.006;5.924;2023-12-20T03:31:18;13.77;;;12.98;;
73841;SDS011;62184;52.006;5.924;2023-12-20T03:33:45;13.03;;;12.33;;
73841;SDS011;62184;52.006;5.924;2023-12-20T03:36:11;13.20;;;12.50;;
73841;SDS011;62184;52.006;5.924;2023-12-20T03:38:38;13.38;;;12.57;;
73841;SDS011;62184;52.006;5.924;2023-12-20T03:41:04;13.57;;;12.77;;
73841;SDS011;62184;52.006;5.924;2023-12-20T03:43:30;13.75;;;12.95;;
73841;SDS011;62184;52.006;5.924;2023-12-20T03:45:57;14.23;;;13.43;;
73841;SDS011;62184;52.006;5.924;2023-12-20T03:48:26;13.77;;;12.98;;
73841;SDS011;62184;52.006;5.924;2023-12-20T03:50:52;13.90;;;13.10;;
73841;SDS011;62184;52.006;5.924;2023-12-20T03:53:18;13.45;;;12.65;;
73841;SDS011;62184;52.006;5.924;2023-12-20T03:55:45;13.25;;;12.45;;
73841;SDS011;62184;52.006;5.924;2023-12-20T03:58:11;14.30;;;13.50;;
73841;SDS011;62184;52.006;5.924;2023-12-20T04:00:38;13.48;;;12.68;;
73841;SDS011;62184;52.006;5.924;2023-12-20T04:03:04;13.90;;;13.10;;
73841;SDS011;62184;52.006;5.924;2023-12-20T04:05:33;14.07;;;13.27;;
73841;SDS011;62184;52.006;5.924;2023-12-20T04:08:00;13.83;;;13.03;;
73841;SDS011;62184;52.006;5.924;2023-12-20T04:10:27;13.18;;;12.48;;
73841;SDS011;62184;52.006;5.924;2023-12-20T04:12:54;13.57;;;12.77;;
73841;SDS011;62184;52.006;5.924;2023-12-20T04:15:20;13.75;;;12.95;;
73841;SDS011;62184;52.006;5.924;2023-12-20T04:17:46;13.50;;;12.70;;
73841;SDS011;62184;52.006;5.924;2023-12-20T04:20:13;13.50;;;12.70;;
73841;SDS011;62184;52.006;5.924;2023-12-20T04:22:42;13.52;;;12.73;;
73841;SDS011;62184;52.006;5.924;2023-12-20T04:25:08;12.90;;;12.20;;
73841;SDS011;62184;52.006;5.924;2023-12-20T04:27:34;13.88;;;13.07;;
73841;SDS011;62184;52.006;5.924;2023-12-20T04:30:01;14.05;;;13.25;;
73841;SDS011;62184;52.006;5.924;2023-12-20T04:32:27;13.70;;;12.90;;
73841;SDS011;62184;52.006;5.924;2023-12-20T04:34:54;13.43;;;12.63;;
73841;SDS011;62184;52.006;5.924;2023-12-20T04:37:20;13.83;;;13.03;;
73841;SDS011;62184;52.006;5.924;2023-12-20T04:39:49;12.85;;;12.15;;
73841;SDS011;62184;52.006;5.924;2023-12-20T04:42:16;13.35;;;12.55;;
73841;SDS011;62184;52.006;5.924;2023-12-20T04:44:42;13.55;;;12.75;;
73841;SDS011;62184;52.006;5.924;2023-12-20T04:47:08;13.07;;;12.38;;
73841;SDS011;62184;52.006;5.924;2023-12-20T04:49:35;13.00;;;12.30;;
73841;SDS011;62184;52.006;5.924;2023-12-20T04:52:01;13.50;;;12.70;;
73841;SDS011;62184;52.006;5.924;2023-12-20T04:54:28;13.23;;;12.43;;
73841;SDS011;62184;52.006;5.924;2023-12-20T04:56:57;13.43;;;12.63;;
73841;SDS011;62184;52.006;5.924;2023-12-20T04:59:23;13.33;;;12.53;;
73841;SDS011;62184;52.006;5.924;2023-12-20T05:01:50;14.40;;;13.60;;
73841;SDS011;62184;52.006;5.924;2023-12-20T05:04:16;13.82;;;13.02;;
73841;SDS011;62184;52.006;5.924;2023-12-20T05:06:42;13.30;;;12.50;;
73841;SDS011;62184;52.006;5.924;2023-12-20T05:09:09;13.73;;;12.93;;
73841;SDS011;62184;52.006;5.924;2023-12-20T05:11:35;12.90;;;12.00;;
73841;SDS011;62184;52.006;5.924;2023-12-20T05:14:04;13.90;;;13.10;;
73841;SDS011;62184;52.006;5.924;2023-12-20T05:16:30;13.00;;;12.20;;
73841;SDS011;62184;52.006;5.924;2023-12-20T05:18:57;13.33;;;12.53;;
73841;SDS011;62184;52.006;5.924;2023-12-20T05:21:23;13.27;;;12.47;;
73841;SDS011;62184;52.006;5.924;2023-12-20T05:23:50;13.50;;;12.70;;
73841;SDS011;62184;52.006;5.924;2023-12-20T05:26:16;13.33;;;12.53;;
73841;SDS011;62184;52.006;5.924;2023-12-20T05:28:42;12.80;;;12.00;;
73841;SDS011;62184;52.006;5.924;2023-12-20T05:31:12;13.18;;;12.38;;
73841;SDS011;62184;52.006;5.924;2023-12-20T05:33:38;13.13;;;12.33;;
73841;SDS011;62184;52.006;5.924;2023-12-20T05:36:05;13.60;;;12.80;;
73841;SDS011;62184;52.006;5.924;2023-12-20T05:38:32;14.18;;;13.38;;
73841;SDS011;62184;52.006;5.924;2023-12-20T05:40:58;14.70;;;13.90;;
73841;SDS011;62184;52.006;5.924;2023-12-20T05:43:24;14.20;;;13.40;;
73841;SDS011;62184;52.006;5.924;2023-12-20T05:45:51;14.30;;;13.40;;
73841;SDS011;62184;52.006;5.924;2023-12-20T05:48:20;13.30;;;12.50;;
73841;SDS011;62184;52.006;5.924;2023-12-20T05:50:46;14.30;;;13.50;;
73841;SDS011;62184;52.006;5.924;2023-12-20T05:53:12;14.90;;;14.00;;
73841;SDS011;62184;52.006;5.924;2023-12-20T05:55:39;14.18;;;13.32;;
73841;SDS011;62184;52.006;5.924;2023-12-20T05:58:05;13.27;;;12.47;;
73841;SDS011;62184;52.006;5.924;2023-12-20T06:00:32;13.93;;;13.13;;
73841;SDS011;62184;52.006;5.924;2023-12-20T06:02:58;13.87;;;13.07;;
73841;SDS011;62184;52.006;5.924;2023-12-20T06:05:27;14.65;;;13.85;;
73841;SDS011;62184;52.006;5.924;2023-12-20T06:07:54;14.07;;;13.27;;
73841;SDS011;62184;52.006;5.924;2023-12-20T06:10:20;12.98;;;12.18;;
73841;SDS011;62184;52.006;5.924;2023-12-20T06:12:46;12.63;;;11.82;;
73841;SDS011;62184;52.006;5.924;2023-12-20T06:15:13;12.15;;;11.45;;
73841;SDS011;62184;52.006;5.924;2023-12-20T06:17:39;13.70;;;12.80;;
73841;SDS011;62184;52.006;5.924;2023-12-20T06:20:07;12.75;;;11.95;;
73841;SDS011;62184;52.006;5.924;2023-12-20T06:22:38;11.90;;;11.20;;
73841;SDS011;62184;52.006;5.924;2023-12-20T06:25:05;12.25;;;11.55;;
73841;SDS011;62184;52.006;5.924;2023-12-20T06:27:31;12.20;;;11.50;;
73841;SDS011;62184;52.006;5.924;2023-12-20T06:29:58;12.30;;;11.50;;
73841;SDS011;62184;52.006;5.924;2023-12-20T06:32:24;12.00;;;11.30;;
73841;SDS011;62184;52.006;5.924;2023-12-20T06:34:51;12.20;;;11.50;;
73841;SDS011;62184;52.006;5.924;2023-12-20T06:37:17;12.63;;;11.83;;
73841;SDS011;62184;52.006;5.924;2023-12-20T06:39:46;12.57;;;11.77;;
73841;SDS011;62184;52.006;5.924;2023-12-20T06:42:13;12.35;;;11.45;;
73841;SDS011;62184;52.006;5.924;2023-12-20T06:44:39;12.00;;;11.20;;
73841;SDS011;62184;52.006;5.924;2023-12-20T06:47:05;11.88;;;11.15;;
73841;SDS011;62184;52.006;5.924;2023-12-20T06:49:32;12.10;;;11.30;;
73841;SDS011;62184;52.006;5.924;2023-12-20T06:51:58;12.70;;;11.90;;
73841;SDS011;62184;52.006;5.924;2023-12-20T06:54:25;12.52;;;11.73;;
73841;SDS011;62184;52.006;5.924;2023-12-20T06:56:54;12.27;;;11.48;;
73841;SDS011;62184;52.006;5.924;2023-12-20T06:59:20;13.07;;;12.27;;
73841;SDS011;62184;52.006;5.924;2023-12-20T07:01:47;12.43;;;11.63;;
73841;SDS011;62184;52.006;5.924;2023-12-20T07:04:15;12.95;;;12.15;;
73841;SDS011;62184;52.006;5.924;2023-12-20T07:06:41;13.27;;;12.48;;
73841;SDS011;62184;52.006;5.924;2023-12-20T07:09:08;13.30;;;12.50;;
73841;SDS011;62184;52.006;5.924;2023-12-20T07:11:34;12.73;;;11.93;;
73841;SDS011;62184;52.006;5.924;2023-12-20T07:14:03;13.38;;;12.57;;
73841;SDS011;62184;52.006;5.924;2023-12-20T07:16:30;12.50;;;11.70;;
73841;SDS011;62184;52.006;5.924;2023-12-20T07:18:56;12.50;;;11.70;;
73841;SDS011;62184;52.006;5.924;2023-12-20T07:21:22;12.73;;;11.93;;
73841;SDS011;62184;52.006;5.924;2023-12-20T07:23:49;12.85;;;12.05;;
73841;SDS011;62184;52.006;5.924;2023-12-20T07:26:15;13.05;;;12.25;;
73841;SDS011;62184;52.006;5.924;2023-12-20T07:28:43;13.15;;;12.35;;
73841;SDS011;62184;52.006;5.924;2023-12-20T07:31:12;13.15;;;12.35;;
73841;SDS011;62184;52.006;5.924;2023-12-20T07:33:38;13.30;;;12.40;;
73841;SDS011;62184;52.006;5.924;2023-12-20T07:36:05;13.80;;;13.00;;
73841;SDS011;62184;52.006;5.924;2023-12-20T07:38:32;13.95;;;13.13;;
73841;SDS011;62184;52.006;5.924;2023-12-20T07:40:58;14.40;;;13.60;;
73841;SDS011;62184;52.006;5.924;2023-12-20T07:43:25;12.30;;;11.50;;
73841;SDS011;62184;52.006;5.924;2023-12-20T07:45:51;12.60;;;11.80;;
73841;SDS011;62184;52.006;5.924;2023-12-20T07:48:20;12.73;;;11.93;;
73841;SDS011;62184;52.006;5.924;2023-12-20T07:50:47;13.27;;;12.48;;
73841;SDS011;62184;52.006;5.924;2023-12-20T07:53:13;13.43;;;12.63;;
73841;SDS011;62184;52.006;5.924;2023-12-20T07:55:40;12.60;;;11.80;;
73841;SDS011;62184;52.006;5.924;2023-12-20T07:58:06;12.50;;;11.70;;
73841;SDS011;62184;52.006;5.924;2023-12-20T08:00:33;12.70;;;11.90;;
73841;SDS011;62184;52.006;5.924;2023-12-20T08:02:59;12.77;;;11.98;;
73841;SDS011;62184;52.006;5.924;2023-12-20T08:05:28;12.85;;;12.05;;
73841;SDS011;62184;52.006;5.924;2023-12-20T08:07:54;13.63;;;12.73;;
73841;SDS011;62184;52.006;5.924;2023-12-20T08:10:21;13.43;;;12.52;;
73841;SDS011;62184;52.006;5.924;2023-12-20T08:12:47;13.40;;;12.50;;
73841;SDS011;62184;52.006;5.924;2023-12-20T08:15:14;13.15;;;12.25;;
73841;SDS011;62184;52.006;5.924;2023-12-20T08:17:40;12.60;;;11.80;;
73841;SDS011;62184;52.006;5.924;2023-12-20T08:20:07;13.60;;;12.80;;
73841;SDS011;62184;52.006;5.924;2023-12-20T08:22:36;13.07;;;12.27;;
73841;SDS011;62184;52.006;5.924;2023-12-20T08:25:03;13.40;;;12.60;;
73841;SDS011;62184;52.006;5.924;2023-12-20T08:27:30;13.52;;;12.43;;
73841;SDS011;62184;52.006;5.924;2023-12-20T08:29:57;12.50;;;11.70;;
73841;SDS011;62184;52.006;5.924;2023-12-20T08:32:24;12.20;;;11.40;;
73841;SDS011;62184;52.006;5.924;2023-12-20T08:34:51;12.35;;;11.55;;
73841;SDS011;62184;52.006;5.924;2023-12-20T08:37:18;12.65;;;11.85;;
73841;SDS011;62184;52.006;5.924;2023-12-20T08:39:47;12.75;;;11.93;;
73841;SDS011;62184;52.006;5.924;2023-12-20T08:42:13;12.63;;;11.82;;
73841;SDS011;62184;52.006;5.924;2023-12-20T08:44:39;12.98;;;12.07;;
73841;SDS011;62184;52.006;5.924;2023-12-20T08:47:06;12.35;;;11.55;;
73841;SDS011;62184;52.006;5.924;2023-12-20T08:49:32;12.30;;;11.50;;
73841;SDS011;62184;52.006;5.924;2023-12-20T08:51:59;13.40;;;12.50;;
73841;SDS011;62184;52.006;5.924;2023-12-20T08:54:25;13.65;;;12.75;;
73841;SDS011;62184;52.006;5.924;2023-12-20T08:56:54;13.80;;;12.90;;
73841;SDS011;62184;52.006;5.924;2023-12-20T08:59:20;13.70;;;12.80;;
73841;SDS011;62184;52.006;5.924;2023-12-20T09:01:47;13.20;;;12.30;;
73841;SDS011;62184;52.006;5.924;2023-12-20T09:04:13;13.20;;;12.30;;
73841;SDS011;62184;52.006;5.924;2023-12-20T09:06:40;13.30;;;12.40;;
73841;SDS011;62184;52.006;5.924;2023-12-20T09:09:06;14.10;;;13.20;;
73841;SDS011;62184;52.006;5.924;2023-12-20T09:11:32;14.18;;;13.27;;
73841;SDS011;62184;52.006;5.924;2023-12-20T09:14:01;14.40;;;13.50;;
73841;SDS011;62184;52.006;5.924;2023-12-20T09:16:28;14.40;;;13.40;;
73841;SDS011;62184;52.006;5.924;2023-12-20T09:18:54;15.20;;;14.20;;
73841;SDS011;62184;52.006;5.924;2023-12-20T09:21:20;15.40;;;14.40;;
73841;SDS011;62184;52.006;5.924;2023-12-20T09:23:47;16.13;;;15.13;;
73841;SDS011;62184;52.006;5.924;2023-12-20T09:26:13;17.10;;;16.00;;
73841;SDS011;62184;52.006;5.924;2023-12-20T09:28:40;14.93;;;13.93;;
73841;SDS011;62184;52.006;5.924;2023-12-20T09:31:09;15.23;;;14.23;;
73841;SDS011;62184;52.006;5.924;2023-12-20T09:33:36;15.90;;;14.80;;
73841;SDS011;62184;52.006;5.924;2023-12-20T09:36:02;14.75;;;13.75;;
73841;SDS011;62184;52.006;5.924;2023-12-20T09:38:29;14.50;;;13.50;;
73841;SDS011;62184;52.006;5.924;2023-12-20T09:40:55;15.55;;;14.45;;
73841;SDS011;62184;52.006;5.924;2023-12-20T09:43:23;16.20;;;15.10;;
73841;SDS011;62184;52.006;5.924;2023-12-20T09:45:51;15.50;;;14.40;;
73841;SDS011;62184;52.006;5.924;2023-12-20T09:48:23;15.60;;;14.50;;
73841;SDS011;62184;52.006;5.924;2023-12-20T09:50:52;16.58;;;15.48;;
73841;SDS011;62184;52.006;5.924;2023-12-20T09:53:18;16.60;;;15.50;;
73841;SDS011;62184;52.006;5.924;2023-12-20T09:55:47;16.40;;;15.30;;
73841;SDS011;62184;52.006;5.924;2023-12-20T09:58:13;16.20;;;15.10;;
73841;SDS011;62184;52.006;5.924;2023-12-20T10:00:39;16.50;;;15.40;;
73841;SDS011;62184;52.006;5.924;2023-12-20T10:03:06;16.30;;;15.20;;
73841;SDS011;62184;52.006;5.924;2023-12-20T10:05:37;15.50;;;14.50;;
73841;SDS011;62184;52.006;5.924;2023-12-20T10:08:09;16.33;;;15.23;;
73841;SDS011;62184;52.006;5.924;2023-12-20T10:10:35;16.15;;;15.05;;
73841;SDS011;62184;52.006;5.924;2023-12-20T10:13:02;15.52;;;14.52;;
73841;SDS011;62184;52.006;5.924;2023-12-20T10:15:31;15.70;;;14.70;;
73841;SDS011;62184;52.006;5.924;2023-12-20T10:17:59;15.60;;;14.50;;
73841;SDS011;62184;52.006;5.924;2023-12-20T10:20:26;16.08;;;14.98;;
73841;SDS011;62184;52.006;5.924;2023-12-20T10:22:55;15.70;;;14.70;;
73841;SDS011;62184;52.006;5.924;2023-12-20T10:25:22;15.23;;;14.23;;
73841;SDS011;62184;52.006;5.924;2023-12-20T10:27:49;16.20;;;15.10;;
73841;SDS011;62184;52.006;5.924;2023-12-20T10:30:33;16.02;;;14.93;;
73841;SDS011;62184;52.006;5.924;2023-12-20T10:33:00;16.10;;;15.02;;
73841;SDS011;62184;52.006;5.924;2023-12-20T10:35:26;16.17;;;15.07;;
73841;SDS011;62184;52.006;5.924;2023-12-20T10:37:55;15.35;;;14.35;;
73841;SDS011;62184;52.006;5.924;2023-12-20T10:40:25;15.02;;;14.02;;
73841;SDS011;62184;52.006;5.924;2023-12-20T10:42:55;15.13;;;14.13;;
73841;SDS011;62184;52.006;5.924;2023-12-20T10:45:23;15.27;;;14.27;;
73841;SDS011;62184;52.006;5.924;2023-12-20T10:47:50;14.80;;;13.80;;
73841;SDS011;62184;52.006;5.924;2023-12-20T10:50:17;16.40;;;15.30;;
73841;SDS011;62184;52.006;5.924;2023-12-20T10:52:45;15.50;;;14.50;;
73841;SDS011;62184;52.006;5.924;2023-12-20T10:55:15;15.73;;;14.73;;
73841;SDS011;62184;52.006;5.924;2023-12-20T10:57:42;15.40;;;14.40;;
73841;SDS011;62184;52.006;5.924;2023-12-20T11:00:13;15.70;;;14.65;;
73841;SDS011;62184;52.006;5.924;2023-12-20T11:02:43;15.00;;;14.00;;
73841;SDS011;62184;52.006;5.924;2023-12-20T11:05:11;15.37;;;14.37;;
73841;SDS011;62184;52.006;5.924;2023-12-20T11:07:52;15.52;;;14.52;;
73841;SDS011;62184;52.006;5.924;2023-12-20T11:10:29;15.55;;;14.45;;
73841;SDS011;62184;52.006;5.924;2023-12-20T11:13:08;14.80;;;13.80;;
73841;SDS011;62184;52.006;5.924;2023-12-20T11:15:45;15.33;;;14.27;;
73841;SDS011;62184;52.006;5.924;2023-12-20T11:18:12;15.05;;;14.05;;
73841;SDS011;62184;52.006;5.924;2023-12-20T11:20:39;15.13;;;14.13;;
73841;SDS011;62184;52.006;5.924;2023-12-20T11:23:07;15.32;;;14.32;;
73841;SDS011;62184;52.006;5.924;2023-12-20T11:25:52;16.38;;;15.27;;
73841;SDS011;62184;52.006;5.924;2023-12-20T11:28:22;14.93;;;13.93;;
73841;SDS011;62184;52.006;5.924;2023-12-20T11:30:50;14.20;;;13.20;;
73841;SDS011;62184;52.006;5.924;2023-12-20T11:33:21;14.70;;;13.70;;
73841;SDS011;62184;52.006;5.924;2023-12-20T11:35:50;15.00;;;14.00;;
73841;SDS011;62184;52.006;5.924;2023-12-20T11:38:19;15.25;;;14.25;;
73841;SDS011;62184;52.006;5.924;2023-12-20T11:40:47;15.60;;;14.60;;
73841;SDS011;62184;52.006;5.924;2023-12-20T11:46:05;14.60;;;13.60;;
73841;SDS011;62184;52.006;5.924;2023-12-20T11:48:34;14.35;;;13.35;;
73841;SDS011;62184;52.006;5.924;2023-12-20T11:51:08;14.63;;;13.63;;
73841;SDS011;62184;52.006;5.924;2023-12-20T11:53:36;14.00;;;13.00;;
73841;SDS011;62184;52.006;5.924;2023-12-20T11:56:05;14.87;;;13.87;;
73841;SDS011;62184;52.006;5.924;2023-12-20T11:58:33;14.50;;;13.50;;
73841;SDS011;62184;52.006;5.924;2023-12-20T12:00:59;15.32;;;14.13;;
73841;SDS011;62184;52.006;5.924;2023-12-20T12:03:26;13.95;;;13.05;;
73841;SDS011;62184;52.006;5.924;2023-12-20T12:05:52;14.10;;;13.20;;
73841;SDS011;62184;52.006;5.924;2023-12-20T12:08:19;15.03;;;14.03;;
73841;SDS011;62184;52.006;5.924;2023-12-20T12:10:45;14.87;;;13.87;;
73841;SDS011;62184;52.006;5.924;2023-12-20T12:13:14;15.00;;;14.00;;
73841;SDS011;62184;52.006;5.924;2023-12-20T12:15:41;14.88;;;13.88;;
73841;SDS011;62184;52.006;5.924;2023-12-20T12:18:08;14.55;;;13.55;;
73841;SDS011;62184;52.006;5.924;2023-12-20T12:20:35;16.20;;;15.18;;
73841;SDS011;62184;52.006;5.924;2023-12-20T12:23:01;15.48;;;14.48;;
73841;SDS011;62184;52.006;5.924;2023-12-20T12:25:30;15.20;;;14.20;;
73841;SDS011;62184;52.006;5.924;2023-12-20T12:28:00;15.10;;;14.10;;
73841;SDS011;62184;52.006;5.924;2023-12-20T12:30:30;15.77;;;14.77;;
73841;SDS011;62184;52.006;5.924;2023-12-20T12:32:56;14.70;;;13.70;;
73841;SDS011;62184;52.006;5.924;2023-12-20T12:35:23;15.87;;;14.87;;
73841;SDS011;62184;52.006;5.924;2023-12-20T12:37:49;16.23;;;15.18;;
73841;SDS011;62184;52.006;5.924;2023-12-20T12:40:17;14.98;;;13.98;;
73841;SDS011;62184;52.006;5.924;2023-12-20T12:42:44;15.47;;;14.47;;
73841;SDS011;62184;52.006;5.924;2023-12-20T12:45:11;15.27;;;14.27;;
73841;SDS011;62184;52.006;5.924;2023-12-20T12:47:40;16.00;;;15.00;;
73841;SDS011;62184;52.006;5.924;2023-12-20T12:50:07;16.97;;;15.87;;
73841;SDS011;62184;52.006;5.924;2023-12-20T12:52:34;16.70;;;15.60;;
73841;SDS011;62184;52.006;5.924;2023-12-20T12:55:01;15.95;;;14.95;;
73841;SDS011;62184;52.006;5.924;2023-12-20T12:57:27;16.00;;;15.00;;
73841;SDS011;62184;52.006;5.924;2023-12-20T12:59:54;16.50;;;15.40;;
73841;SDS011;62184;52.006;5.924;2023-12-20T13:02:20;15.55;;;14.55;;
73841;SDS011;62184;52.006;5.924;2023-12-20T13:04:49;16.47;;;15.37;;
73841;SDS011;62184;52.006;5.924;2023-12-20T13:07:15;16.70;;;15.60;;
73841;SDS011;62184;52.006;5.924;2023-12-20T13:09:42;16.73;;;15.63;;
73841;SDS011;62184;52.006;5.924;2023-12-20T13:12:08;15.95;;;14.95;;
73841;SDS011;62184;52.006;5.924;2023-12-20T13:14:35;15.80;;;14.80;;
73841;SDS011;62184;52.006;5.924;2023-12-20T13:17:01;16.23;;;15.13;;
73841;SDS011;62184;52.006;5.924;2023-12-20T13:19:28;16.00;;;15.00;;
73841;SDS011;62184;52.006;5.924;2023-12-20T13:21:58;16.17;;;15.18;;
73841;SDS011;62184;52.006;5.924;2023-12-20T13:24:24;16.63;;;15.52;;
73841;SDS011;62184;52.006;5.924;2023-12-20T13:26:51;16.98;;;15.77;;
73841;SDS011;62184;52.006;5.924;2023-12-20T13:29:17;15.30;;;14.30;;
73841;SDS011;62184;52.006;5.924;2023-12-20T13:31:44;15.63;;;14.63;;
73841;SDS011;62184;52.006;5.924;2023-12-20T13:34:10;15.63;;;14.63;;
73841;SDS011;62184;52.006;5.924;2023-12-20T13:36:37;15.80;;;14.80;;
73841;SDS011;62184;52.006;5.924;2023-12-20T13:39:06;15.70;;;14.70;;
73841;SDS011;62184;52.006;5.924;2023-12-20T13:41:32;15.98;;;14.98;;
73841;SDS011;62184;52.006;5.924;2023-12-20T13:43:58;16.20;;;15.20;;
73841;SDS011;62184;52.006;5.924;2023-12-20T13:46:25;15.03;;;14.03;;
73841;SDS011;62184;52.006;5.924;2023-12-20T13:48:51;14.90;;;13.90;;
73841;SDS011;62184;52.006;5.924;2023-12-20T13:51:18;15.40;;;14.40;;
73841;SDS011;62184;52.006;5.924;2023-12-20T13:53:44;15.07;;;14.07;;
73841;SDS011;62184;52.006;5.924;2023-12-20T13:56:13;16.45;;;15.35;;
73841;SDS011;62184;52.006;5.924;2023-12-20T13:58:40;14.17;;;13.27;;
73841;SDS011;62184;52.006;5.924;2023-12-20T14:01:06;15.02;;;14.02;;
73841;SDS011;62184;52.006;5.924;2023-12-20T14:03:33;15.43;;;14.43;;
73841;SDS011;62184;52.006;5.924;2023-12-20T14:06:00;15.07;;;14.07;;
73841;SDS011;62184;52.006;5.924;2023-12-20T14:08:26;15.23;;;14.23;;
73841;SDS011;62184;52.006;5.924;2023-12-20T14:10:53;15.43;;;14.43;;
73841;SDS011;62184;52.006;5.924;2023-12-20T14:13:22;15.52;;;14.52;;
73841;SDS011;62184;52.006;5.924;2023-12-20T14:15:48;15.13;;;14.13;;
73841;SDS011;62184;52.006;5.924;2023-12-20T14:18:15;15.40;;;14.40;;
73841;SDS011;62184;52.006;5.924;2023-12-20T14:20:41;16.02;;;15.02;;
73841;SDS011;62184;52.006;5.924;2023-12-20T14:23:08;16.08;;;15.07;;
73841;SDS011;62184;52.006;5.924;2023-12-20T14:25:34;16.10;;;15.10;;
73841;SDS011;62184;52.006;5.924;2023-12-20T14:28:01;14.18;;;13.27;;